NORTHEAST SUFFOLK  -  Winter Weather Advisory Winter Weather Advisory     Winter Weather Advisory Winter Weather Advisory        NORTHERN NASSAU  -  Winter Weather Advisory Winter Weather Advisory        NORTHWEST SUFFOLK  -  Winter Weather Advisory Winter Weather Advisory     Winter Weather Advisory Winter Weather Advisory        SOUTHEAST SUFFOLK  -  Winter Weather Advisory Winter Weather Advisory     Winter Weather Advisory Winter Weather Advisory        SOUTHERN NASSAU  -  Winter Weather Advisory Winter Weather Advisory        SOUTHWEST SUFFOLK  -  Winter Weather Advisory Winter Weather Advisory     Winter Weather Advisory Winter Weather Advisory      

Active alerts

Northern Nassau
  Details for Northern Nassau Winter Weather Advisory
Southern Nassau
  Details for Southern Nassau Winter Weather Advisory
Northwest Suffolk
  Details for Northwest Suffolk Winter Weather Advisory  +1 additional alert
Southwest Suffolk
  Details for Southwest Suffolk Winter Weather Advisory  +1 additional alert
Northeast Suffolk
  Details for Northeast Suffolk Winter Weather Advisory  +1 additional alert
Southeast Suffolk
  Details for Southeast Suffolk Winter Weather Advisory  +1 additional alert


WXM80 ListenWXM80 Stop

You find our weather info also at:

UK Metoffice

WeatherCloud

Weather Underground

Northeastern Weather Network

AWEKAS

Citizen Weather Observer Program (CWOP)

HAMweather, WeatherForYou, PWS Weather


Weather Underground History page Text

Daily Summary for June 17, 2017 Units:  English    Metric   Both
« Previous Day
Next Day »
Daily Weekly Monthly Yearly Custom
  High: Low: Average:
Temperature: 72.7 °F 63.8 °F 67.5 °F
Dew Point: 71.5 °F 63.1 °F 66.4 °F
Humidity: 98 % 89 % 96 %
Wind Speed: 4.0 mph 0.0 mph 0.4 mph
Wind Gust: 9.2 mph - -
Wind:- - East
Pressure: 29.93 in 29.87 in -
Precipitation: 0.38 in    
Historical Graphs
 
 
Tabular Data for June 17, 2017
Time Temperature Dew Point Pressure Wind Wind Speed Wind Gust Humidity Rainfall Rate (Hourly)
00:01 64.1 °F 63.2 °F 29.91 in ENE 1.3 mph 4.6 mph 97 % 0.01 in
00:07 64.1 °F 63.2 °F 29.91 in NE 0.7 mph 3.5 mph 97 % 0.01 in
00:12 64.1 °F 63.2 °F 29.90 in NE 0.6 mph 3.5 mph 97 % 0.01 in
00:17 64.1 °F 63.2 °F 29.90 in NE 0.3 mph 2.3 mph 97 % 0.01 in
00:19 64.0 °F 63.1 °F 29.90 in NE 0.7 mph 2.3 mph 97 % 0.01 in
00:24 64.0 °F 63.1 °F 29.90 in NE 0.6 mph 3.5 mph 97 % 0.01 in
00:29 64.0 °F 63.4 °F 29.90 in NE 0.4 mph 2.3 mph 98 % 0.01 in
00:34 64.0 °F 63.4 °F 29.90 in NE 0.6 mph 2.0 mph 98 % 0.01 in
00:39 64.0 °F 63.4 °F 29.90 in NNE 1.1 mph 3.5 mph 98 % 0.01 in
00:44 64.0 °F 63.4 °F 29.90 in NE 0.6 mph 3.5 mph 98 % 0.00 in
00:50 64.0 °F 63.4 °F 29.89 in Calm     98 % 0.00 in
00:55 64.0 °F 63.4 °F 29.89 in ENE 1.9 mph 3.5 mph 98 % 0.00 in
01:00 64.0 °F 63.4 °F 29.90 in ENE 1.1 mph 3.5 mph 98 % 0.00 in
01:05 64.1 °F 63.5 °F 29.89 in ENE 1.3 mph 3.5 mph 98 % 0.00 in
01:10 64.1 °F 63.5 °F 29.90 in ENE 1.7 mph 3.5 mph 98 % 0.00 in
01:15 64.1 °F 63.5 °F 29.90 in ENE 0.1 mph 1.2 mph 98 % 0.00 in
01:20 64.1 °F 63.5 °F 29.90 in Calm     98 % 0.00 in
01:25 64.1 °F 63.5 °F 29.90 in Calm     98 % 0.00 in
01:30 64.1 °F 63.5 °F 29.90 in Calm     98 % 0.00 in
01:35 64.1 °F 63.5 °F 29.89 in Calm     98 % 0.00 in
01:40 64.1 °F 63.5 °F 29.89 in Calm     98 % 0.00 in
01:45 64.1 °F 63.5 °F 29.89 in Calm     98 % 0.00 in
01:50 64.1 °F 63.5 °F 29.89 in Calm     98 % 0.00 in
01:55 64.2 °F 63.6 °F 29.89 in Calm     98 % 0.00 in
02:00 64.2 °F 63.6 °F 29.89 in Calm     98 % 0.00 in
02:05 64.2 °F 63.6 °F 29.89 in ENE 0.9 mph 3.5 mph 98 % 0.00 in
02:10 64.3 °F 63.7 °F 29.89 in NE 0.6 mph 3.5 mph 98 % 0.00 in
02:15 64.3 °F 63.7 °F 29.89 in NE 0.6 mph 2.3 mph 98 % 0.00 in
02:20 64.3 °F 63.7 °F 29.89 in NE 0.9 mph 2.3 mph 98 % 0.00 in
02:25 64.2 °F 63.6 °F 29.89 in NE 0.9 mph 2.3 mph 98 % 0.00 in
02:28 64.2 °F 63.6 °F 29.89 in NE 0.2 mph 3.5 mph 98 % 0.00 in
02:33 64.2 °F 63.6 °F 29.89 in NE 0.7 mph 2.3 mph 98 % 0.00 in
02:38 64.1 °F 63.5 °F 29.88 in NE 0.2 mph 1.2 mph 98 % 0.00 in
02:43 64.1 °F 63.5 °F 29.88 in NE 0.1 mph 1.2 mph 98 % 0.00 in
02:48 64.1 °F 63.5 °F 29.88 in Calm   1.2 mph 98 % 0.00 in
02:53 64.0 °F 63.4 °F 29.88 in NE 0.6 mph 2.3 mph 98 % 0.00 in
02:58 64.0 °F 63.4 °F 29.88 in Calm     98 % 0.00 in
03:03 64.0 °F 63.4 °F 29.88 in Calm     98 % 0.00 in
03:08 64.0 °F 63.4 °F 29.88 in Calm     98 % 0.00 in
03:13 63.9 °F 63.3 °F 29.88 in Calm   2.3 mph 98 % 0.00 in
03:18 63.9 °F 63.3 °F 29.88 in Calm     98 % 0.00 in
03:23 63.9 °F 63.3 °F 29.88 in Calm     98 % 0.00 in
03:28 63.8 °F 63.2 °F 29.89 in Calm     98 % 0.00 in
03:33 63.8 °F 63.2 °F 29.88 in Calm     98 % 0.00 in
03:38 63.8 °F 63.2 °F 29.88 in Calm     98 % 0.00 in
03:43 63.8 °F 63.2 °F 29.88 in Calm     98 % 0.00 in
03:48 63.8 °F 63.2 °F 29.88 in NE 0.9 mph 2.3 mph 98 % 0.00 in
03:53 63.8 °F 63.2 °F 29.88 in Calm   1.2 mph 98 % 0.00 in
03:58 63.8 °F 63.2 °F 29.88 in NE 0.1 mph 1.2 mph 98 % 0.00 in
04:03 63.9 °F 63.3 °F 29.88 in Calm   1.2 mph 98 % 0.00 in
04:08 63.9 °F 63.3 °F 29.88 in Calm     98 % 0.00 in
04:13 63.9 °F 63.3 °F 29.88 in Calm     98 % 0.00 in
04:18 63.9 °F 63.3 °F 29.88 in Calm     98 % 0.00 in
04:23 63.9 °F 63.3 °F 29.89 in Calm   2.3 mph 98 % 0.00 in
04:28 63.8 °F 63.2 °F 29.89 in Calm     98 % 0.00 in
04:33 63.9 °F 63.3 °F 29.89 in Calm     98 % 0.00 in
04:38 63.9 °F 63.3 °F 29.89 in Calm   1.2 mph 98 % 0.00 in
04:43 63.9 °F 63.3 °F 29.89 in North 0.9 mph 3.5 mph 98 % 0.00 in
04:48 63.9 °F 63.3 °F 29.89 in NNE 1.6 mph 2.3 mph 98 % 0.00 in
04:53 64.0 °F 63.4 °F 29.89 in NNE 1.3 mph 3.5 mph 98 % 0.00 in
04:59 64.0 °F 63.4 °F 29.88 in NNE 1.8 mph 3.5 mph 98 % 0.00 in
05:04 64.0 °F 63.4 °F 29.89 in NNE 1.2 mph 3.5 mph 98 % 0.00 in
05:09 64.0 °F 63.4 °F 29.88 in NE 0.2 mph 3.5 mph 98 % 0.00 in
05:14 64.1 °F 63.5 °F 29.89 in ENE 0.3 mph 1.2 mph 98 % 0.00 in
05:19 64.1 °F 63.5 °F 29.88 in ENE 1.9 mph 3.5 mph 98 % 0.00 in
05:24 64.1 °F 63.5 °F 29.88 in ENE 0.2 mph 1.2 mph 98 % 0.00 in
05:29 64.1 °F 63.5 °F 29.89 in ENE 1.3 mph 3.5 mph 98 % 0.00 in
05:34 64.1 °F 63.5 °F 29.89 in East 1.2 mph 3.5 mph 98 % 0.00 in
05:39 64.1 °F 63.5 °F 29.88 in East 0.2 mph 1.2 mph 98 % 0.00 in
05:44 64.0 °F 63.4 °F 29.88 in ENE 0.8 mph 3.5 mph 98 % 0.00 in
05:49 64.0 °F 63.4 °F 29.88 in ENE 0.1 mph 1.2 mph 98 % 0.00 in
05:54 64.0 °F 63.4 °F 29.88 in Calm     98 % 0.00 in
06:00 64.0 °F 63.4 °F 29.88 in Calm     98 % 0.00 in
06:05 64.0 °F 63.4 °F 29.89 in Calm   1.0 mph 98 % 0.00 in
06:10 64.0 °F 63.4 °F 29.89 in Calm   2.3 mph 98 % 0.00 in
06:15 64.0 °F 63.4 °F 29.88 in ENE 0.5 mph 2.3 mph 98 % 0.00 in
06:20 64.0 °F 63.4 °F 29.88 in Calm   1.0 mph 98 % 0.00 in
06:25 64.0 °F 63.4 °F 29.89 in Calm     98 % 0.00 in
06:30 64.0 °F 63.4 °F 29.89 in Calm     98 % 0.00 in
06:35 64.0 °F 63.4 °F 29.89 in Calm     98 % 0.00 in
06:40 64.1 °F 63.5 °F 29.89 in Calm     98 % 0.00 in
06:45 64.1 °F 63.5 °F 29.89 in Calm     98 % 0.00 in
06:50 64.2 °F 63.6 °F 29.89 in ENE 0.8 mph 3.0 mph 98 % 0.00 in
06:55 64.2 °F 63.6 °F 29.90 in Calm     98 % 0.00 in
07:00 64.3 °F 63.7 °F 29.90 in Calm     98 % 0.00 in
07:05 64.3 °F 63.7 °F 29.89 in Calm     98 % 0.00 in
07:10 64.4 °F 63.8 °F 29.89 in ENE 0.5 mph 2.0 mph 98 % 0.00 in
07:15 64.5 °F 63.9 °F 29.89 in ENE 0.6 mph 1.2 mph 98 % 0.00 in
07:20 64.5 °F 63.9 °F 29.90 in Calm     98 % 0.00 in
07:25 64.5 °F 63.9 °F 29.90 in ENE 0.2 mph 1.0 mph 98 % 0.00 in
07:30 64.5 °F 63.9 °F 29.89 in Calm     98 % 0.00 in
07:35 64.6 °F 64.0 °F 29.90 in Calm     98 % 0.00 in
07:40 64.8 °F 64.2 °F 29.90 in Calm   1.2 mph 98 % 0.00 in
07:45 64.8 °F 64.2 °F 29.89 in Calm     98 % 0.00 in
07:51 65.0 °F 64.4 °F 29.89 in Calm   2.0 mph 98 % 0.00 in
07:52 65.0 °F 64.4 °F 29.89 in Calm   2.3 mph 98 % 0.00 in
07:57 65.1 °F 64.5 °F 29.90 in NE 1.0 mph 3.5 mph 98 % 0.00 in
08:02 65.2 °F 64.6 °F 29.90 in NE 0.6 mph 2.3 mph 98 % 0.00 in
08:07 65.2 °F 64.6 °F 29.89 in Calm     98 % 0.00 in
08:12 65.4 °F 64.8 °F 29.89 in NE 0.1 mph 1.2 mph 98 % 0.00 in
08:17 65.6 °F 65.0 °F 29.89 in Calm     98 % 0.00 in
08:22 65.7 °F 65.1 °F 29.90 in ENE 0.4 mph 1.2 mph 98 % 0.00 in
08:27 65.7 °F 65.1 °F 29.90 in Calm     98 % 0.00 in
08:32 65.7 °F 65.1 °F 29.91 in NE 0.4 mph 2.3 mph 98 % 0.00 in
08:37 65.6 °F 65.0 °F 29.91 in NE 0.5 mph 2.3 mph 98 % 0.00 in
08:42 65.6 °F 65.0 °F 29.92 in NNE 2.8 mph 3.5 mph 98 % 0.00 in
08:47 65.5 °F 64.9 °F 29.92 in NNE 0.8 mph 1.2 mph 98 % 0.00 in
08:52 65.5 °F 64.9 °F 29.92 in NNE 0.1 mph   98 % 0.00 in
08:57 65.5 °F 64.9 °F 29.92 in NE 0.4 mph 1.2 mph 98 % 0.00 in
09:02 65.5 °F 64.9 °F 29.92 in NNE 2.0 mph 3.5 mph 98 % 0.00 in
09:08 65.5 °F 64.9 °F 29.92 in Calm     98 % 0.00 in
09:13 65.6 °F 65.0 °F 29.93 in ENE 0.5 mph 2.3 mph 98 % 0.00 in
09:18 65.5 °F 64.9 °F 29.92 in ENE 0.1 mph 1.2 mph 98 % 0.00 in
09:23 65.6 °F 65.0 °F 29.92 in ENE 0.1 mph 2.0 mph 98 % 0.00 in
09:28 65.6 °F 65.0 °F 29.92 in Calm   2.3 mph 98 % 0.00 in
09:33 65.6 °F 65.0 °F 29.92 in ENE 0.1 mph 1.2 mph 98 % 0.00 in
09:38 65.7 °F 65.1 °F 29.92 in Calm     98 % 0.00 in
09:40 65.7 °F 65.1 °F 29.92 in Calm     98 % 0.00 in
09:45 65.8 °F 65.2 °F 29.92 in Calm     98 % 0.00 in
09:50 66.1 °F 65.5 °F 29.92 in Calm     98 % 0.00 in
09:55 66.4 °F 65.8 °F 29.93 in SW 0.3 mph 2.3 mph 98 % 0.00 in
10:00 66.8 °F 66.2 °F 29.92 in Calm   1.2 mph 98 % 0.00 in
10:05 66.9 °F 66.3 °F 29.93 in Calm   1.2 mph 98 % 0.00 in
10:10 66.9 °F 66.3 °F 29.92 in ENE 0.4 mph 2.3 mph 98 % 0.00 in
10:15 66.9 °F 66.3 °F 29.92 in ENE 0.4 mph 3.5 mph 98 % 0.00 in
10:20 66.8 °F 66.2 °F 29.92 in SE 0.3 mph 1.2 mph 98 % 0.00 in
10:25 66.9 °F 66.3 °F 29.91 in Calm   1.2 mph 98 % 0.00 in
10:30 67.1 °F 66.5 °F 29.91 in Calm   1.2 mph 98 % 0.00 in
10:35 67.3 °F 66.7 °F 29.91 in SE 0.2 mph 1.2 mph 98 % 0.00 in
10:40 67.5 °F 66.9 °F 29.91 in Calm   2.0 mph 98 % 0.00 in
10:45 67.6 °F 67.0 °F 29.91 in NE 0.6 mph 2.3 mph 98 % 0.00 in
10:50 67.8 °F 67.2 °F 29.91 in NE 1.1 mph 3.5 mph 98 % 0.00 in
10:55 68.2 °F 67.3 °F 29.91 in ENE 0.1 mph 1.2 mph 97 % 0.00 in
11:00 68.4 °F 67.5 °F 29.91 in NE 2.4 mph 4.6 mph 97 % 0.00 in
11:05 68.6 °F 67.4 °F 29.91 in NE 1.7 mph 3.0 mph 96 % 0.00 in
11:10 68.9 °F 67.7 °F 29.91 in NE 0.1 mph 1.2 mph 96 % 0.00 in
11:15 69.1 °F 67.6 °F 29.92 in NE 0.6 mph 1.2 mph 95 % 0.00 in
11:20 69.5 °F 68.0 °F 29.92 in Calm     95 % 0.00 in
11:25 69.8 °F 68.0 °F 29.91 in NE 0.7 mph 2.0 mph 94 % 0.00 in
11:30 70.3 °F 68.2 °F 29.91 in ENE 2.5 mph 5.0 mph 93 % 0.00 in
11:35 70.4 °F 68.0 °F 29.92 in Calm   1.2 mph 92 % 0.00 in
11:40 70.4 °F 67.6 °F 29.91 in ENE 1.1 mph 3.5 mph 91 % 0.00 in
11:46 70.4 °F 67.3 °F 29.91 in NE 2.0 mph 4.0 mph 90 % 0.00 in
11:51 70.3 °F 67.2 °F 29.92 in Calm   3.0 mph 90 % 0.00 in
11:56 70.0 °F 66.6 °F 29.91 in NE 1.0 mph 3.0 mph 89 % 0.00 in
12:01 69.9 °F 66.8 °F 29.91 in NE 1.7 mph 2.3 mph 90 % 0.00 in
12:06 69.9 °F 67.2 °F 29.91 in NNE 0.3 mph 2.3 mph 91 % 0.00 in
12:11 69.9 °F 66.8 °F 29.91 in NNE 2.1 mph 3.5 mph 90 % 0.00 in
12:14 69.9 °F 66.8 °F 29.91 in ENE 1.1 mph 3.5 mph 90 % 0.00 in
12:19 69.7 °F 66.6 °F 29.91 in NE 0.7 mph 3.5 mph 90 % 0.00 in
12:24 69.7 °F 67.0 °F 29.91 in Calm   2.3 mph 91 % 0.00 in
12:29 69.7 °F 67.0 °F 29.91 in NE 0.3 mph 1.2 mph 91 % 0.00 in
12:34 69.6 °F 66.5 °F 29.91 in North 0.7 mph 3.5 mph 90 % 0.00 in
12:39 69.5 °F 66.4 °F 29.91 in NE 2.0 mph 3.5 mph 90 % 0.00 in
12:44 69.3 °F 65.9 °F 29.91 in NE 0.3 mph 3.5 mph 89 % 0.00 in
12:49 69.2 °F 66.1 °F 29.91 in NE 0.6 mph 3.5 mph 90 % 0.00 in
12:54 69.0 °F 65.9 °F 29.91 in Calm   1.2 mph 90 % 0.00 in
12:59 69.0 °F 66.3 °F 29.91 in NE 0.1 mph 1.2 mph 91 % 0.00 in
13:04 69.0 °F 66.3 °F 29.91 in ENE 0.5 mph 2.0 mph 91 % 0.00 in
13:09 68.9 °F 66.2 °F 29.92 in Calm     91 % 0.00 in
13:14 68.8 °F 66.1 °F 29.92 in Calm   1.2 mph 91 % 0.00 in
13:19 68.8 °F 66.1 °F 29.92 in Calm     91 % 0.00 in
13:24 68.7 °F 66.3 °F 29.92 in Calm     92 % 0.01 in
13:29 68.6 °F 66.2 °F 29.92 in Calm     92 % 0.02 in
13:34 68.5 °F 66.1 °F 29.91 in ENE 0.1 mph 1.2 mph 92 % 0.02 in
13:39 68.4 °F 66.0 °F 29.91 in Calm     92 % 0.03 in
13:44 68.3 °F 66.2 °F 29.91 in Calm     93 % 0.05 in
13:49 68.3 °F 66.2 °F 29.92 in Calm     93 % 0.06 in
13:54 68.2 °F 66.1 °F 29.91 in Calm     93 % 0.07 in
13:59 68.2 °F 66.4 °F 29.91 in Calm   1.2 mph 94 % 0.08 in
14:04 68.1 °F 66.3 °F 29.91 in ENE 0.1 mph 1.2 mph 94 % 0.10 in
14:09 68.1 °F 66.3 °F 29.91 in ENE 0.2 mph 1.2 mph 94 % 0.13 in
14:14 68.0 °F 66.2 °F 29.91 in Calm     94 % 0.15 in
14:19 67.9 °F 66.1 °F 29.91 in Calm   1.2 mph 94 % 0.17 in
14:25 67.8 °F 66.0 °F 29.91 in Calm   1.2 mph 94 % 0.18 in
14:30 67.8 °F 66.0 °F 29.91 in ENE 0.2 mph   94 % 0.18 in
14:35 67.8 °F 66.3 °F 29.91 in ENE 0.1 mph 1.2 mph 95 % 0.18 in
14:40 67.9 °F 66.4 °F 29.91 in Calm   1.2 mph 95 % 0.18 in
14:45 68.0 °F 66.5 °F 29.90 in Calm     95 % 0.18 in
14:50 68.1 °F 66.6 °F 29.90 in Calm     95 % 0.17 in
14:55 68.1 °F 66.6 °F 29.91 in Calm     95 % 0.16 in
15:00 68.2 °F 67.0 °F 29.91 in Calm     96 % 0.16 in
15:05 68.3 °F 67.1 °F 29.90 in Calm     96 % 0.14 in
15:10 68.5 °F 67.3 °F 29.90 in Calm   1.2 mph 96 % 0.12 in
15:16 68.6 °F 67.4 °F 29.90 in Calm     96 % 0.00 in
15:21 68.6 °F 67.4 °F 29.91 in Calm   1.0 mph 96 % 0.00 in
15:26 68.8 °F 67.6 °F 29.91 in Calm     96 % 0.00 in
15:36 69.0 °F 68.1 °F 29.90 in Calm   2.0 mph 97 % 0.00 in
15:41 69.2 °F 68.3 °F 29.90 in Calm     97 % 0.00 in
15:46 69.4 °F 68.5 °F 29.90 in Calm   1.0 mph 97 % 0.00 in
15:51 69.7 °F 68.8 °F 29.90 in Calm   1.0 mph 97 % 0.00 in
15:56 69.9 °F 69.0 °F 29.90 in Calm   1.0 mph 97 % 0.10 in
16:01 70.1 °F 69.2 °F 29.89 in SSE 2.8 mph 5.0 mph 97 % 0.09 in
16:06 70.3 °F 69.4 °F 29.89 in SSE 0.4 mph 2.3 mph 97 % 0.09 in
16:11 70.6 °F 70.0 °F 29.89 in SE 0.8 mph 5.8 mph 98 % 0.10 in
16:16 70.9 °F 70.0 °F 29.89 in SE 1.9 mph 3.5 mph 97 % 0.10 in
16:21 71.1 °F 70.5 °F 29.89 in SE 0.1 mph 1.2 mph 98 % 0.09 in
16:26 71.3 °F 70.7 °F 29.89 in SE 0.4 mph 2.3 mph 98 % 0.09 in
16:28 71.4 °F 70.5 °F 29.89 in SE 1.0 mph 2.3 mph 97 % 0.09 in
16:33 71.5 °F 70.6 °F 29.88 in SE 4.0 mph 6.9 mph 97 % 0.08 in
16:38 71.5 °F 70.6 °F 29.89 in SE 3.2 mph 9.2 mph 97 % 0.08 in
16:43 71.7 °F 70.8 °F 29.88 in SSE 0.6 mph 4.6 mph 97 % 0.07 in
16:48 71.9 °F 71.0 °F 29.88 in SSE 0.5 mph 2.3 mph 97 % 0.07 in
16:53 72.2 °F 71.3 °F 29.88 in Calm   1.2 mph 97 % 0.06 in
16:58 72.3 °F 71.4 °F 29.88 in West 0.9 mph 4.0 mph 97 % 0.05 in
16:59 72.3 °F 71.4 °F 29.88 in Calm   3.5 mph 97 % 0.05 in
17:04 72.4 °F 71.5 °F 29.88 in South 0.8 mph 3.5 mph 97 % 0.04 in
17:09 72.4 °F 71.2 °F 29.88 in SE 0.7 mph 2.3 mph 96 % 0.03 in
17:14 72.3 °F 71.1 °F 29.88 in Calm   1.2 mph 96 % 0.03 in
17:19 72.4 °F 70.9 °F 29.88 in South 0.4 mph 3.5 mph 95 % 0.02 in
17:24 72.5 °F 71.3 °F 29.88 in Calm   3.5 mph 96 % 0.01 in
17:29 72.7 °F 71.5 °F 29.87 in West 0.2 mph 1.2 mph 96 % 0.01 in
17:34 72.5 °F 70.7 °F 29.87 in SE 1.1 mph 3.5 mph 94 % 0.01 in
17:40 72.4 °F 70.6 °F 29.87 in SE 0.5 mph 3.5 mph 94 % 0.00 in
17:44 72.4 °F 70.6 °F 29.87 in SSE 0.5 mph 1.2 mph 94 % 0.00 in
17:50 72.4 °F 70.6 °F 29.87 in SSE 0.5 mph 1.2 mph 94 % 0.00 in
17:55 72.4 °F 70.6 °F 29.87 in ENE 0.4 mph 2.3 mph 94 % 0.00 in
18:00 72.2 °F 70.1 °F 29.88 in SE 0.7 mph 4.0 mph 93 % 0.00 in
18:01 72.1 °F 70.0 °F 29.88 in SE 0.1 mph 3.5 mph 93 % 0.00 in
18:06 72.0 °F 69.9 °F 29.88 in SSE 0.2 mph 1.0 mph 93 % 0.00 in
18:11 72.0 °F 69.9 °F 29.88 in NW 0.4 mph 1.2 mph 93 % 0.00 in
18:16 72.0 °F 69.9 °F 29.88 in SSE 0.3 mph 1.2 mph 93 % 0.00 in
18:21 71.9 °F 70.1 °F 29.88 in NNW 0.1 mph 1.2 mph 94 % 0.00 in
18:26 71.8 °F 69.7 °F 29.88 in WNW 0.1 mph 3.5 mph 93 % 0.00 in
18:31 71.7 °F 69.9 °F 29.88 in ESE 1.2 mph 4.6 mph 94 % 0.00 in
18:36 71.6 °F 69.5 °F 29.88 in SE 0.4 mph 3.0 mph 93 % 0.00 in
18:41 71.4 °F 69.3 °F 29.88 in Calm     93 % 0.00 in
18:46 71.4 °F 69.3 °F 29.88 in West 0.2 mph 2.3 mph 93 % 0.00 in
18:51 71.3 °F 69.2 °F 29.88 in Calm   1.2 mph 93 % 0.00 in
18:56 71.3 °F 69.5 °F 29.88 in West 0.1 mph 1.2 mph 94 % 0.00 in
19:01 71.2 °F 69.4 °F 29.88 in Calm     94 % 0.00 in
19:06 71.2 °F 69.4 °F 29.88 in SSE 1.3 mph 3.5 mph 94 % 0.00 in
19:11 71.1 °F 69.3 °F 29.88 in SE 0.1 mph 1.2 mph 94 % 0.00 in
19:16 70.9 °F 69.1 °F 29.89 in SE 0.1 mph 1.2 mph 94 % 0.00 in
19:22 70.8 °F 69.0 °F 29.89 in Calm   2.3 mph 94 % 0.00 in
19:27 70.7 °F 68.9 °F 29.89 in SSE 0.3 mph 3.5 mph 94 % 0.00 in
19:32 70.6 °F 68.8 °F 29.89 in Calm     94 % 0.00 in
19:37 70.6 °F 68.8 °F 29.89 in Calm   1.2 mph 94 % 0.00 in
19:42 70.5 °F 68.7 °F 29.89 in SSE 0.5 mph 3.5 mph 94 % 0.00 in
19:47 70.4 °F 68.6 °F 29.89 in SSE 0.5 mph 1.2 mph 94 % 0.00 in
19:52 70.3 °F 68.8 °F 29.89 in SE 1.4 mph 4.6 mph 95 % 0.00 in
19:57 70.2 °F 68.7 °F 29.89 in Calm   2.3 mph 95 % 0.00 in
20:02 70.2 °F 68.7 °F 29.89 in Calm   2.3 mph 95 % 0.00 in
20:07 70.1 °F 68.6 °F 29.89 in Calm   3.5 mph 95 % 0.00 in
20:12 70.1 °F 68.6 °F 29.89 in SSE 1.6 mph 3.5 mph 95 % 0.00 in
20:17 70.1 °F 68.6 °F 29.89 in SE 0.1 mph 1.2 mph 95 % 0.00 in
20:22 70.0 °F 68.5 °F 29.89 in SE 0.8 mph 5.0 mph 95 % 0.00 in
20:27 70.0 °F 68.5 °F 29.89 in SE 0.6 mph 2.3 mph 95 % 0.00 in
20:32 69.9 °F 68.4 °F 29.89 in Calm   1.2 mph 95 % 0.00 in
20:37 69.9 °F 68.4 °F 29.89 in Calm   1.2 mph 95 % 0.00 in
20:42 69.9 °F 68.7 °F 29.89 in SE 0.1 mph 2.0 mph 96 % 0.00 in
20:47 69.8 °F 68.6 °F 29.89 in Calm     96 % 0.00 in
20:52 69.8 °F 68.6 °F 29.89 in Calm     96 % 0.00 in
20:57 69.7 °F 68.5 °F 29.89 in SE 0.5 mph 2.0 mph 96 % 0.00 in
21:02 69.7 °F 68.5 °F 29.89 in Calm     96 % 0.00 in
21:03 69.7 °F 68.5 °F 29.89 in Calm     96 % 0.00 in
21:08 69.6 °F 68.4 °F 29.89 in Calm     96 % 0.00 in
21:13 69.6 °F 68.4 °F 29.89 in Calm     96 % 0.00 in
21:18 69.5 °F 68.3 °F 29.89 in SE 0.7 mph 2.3 mph 96 % 0.00 in
21:23 69.5 °F 68.3 °F 29.89 in Calm     96 % 0.00 in
21:28 69.5 °F 68.3 °F 29.89 in Calm     96 % 0.00 in
21:33 69.5 °F 68.3 °F 29.89 in Calm     96 % 0.00 in
21:38 69.5 °F 68.3 °F 29.89 in Calm   1.2 mph 96 % 0.00 in
21:43 69.4 °F 68.2 °F 29.89 in Calm   1.2 mph 96 % 0.00 in
21:48 69.4 °F 68.2 °F 29.90 in Calm     96 % 0.00 in
21:49 69.4 °F 68.2 °F 29.89 in Calm     96 % 0.00 in
21:55 69.4 °F 68.2 °F 29.90 in Calm     96 % 0.00 in
22:00 69.3 °F 68.1 °F 29.90 in SSE 0.7 mph 2.3 mph 96 % 0.00 in
22:05 69.3 °F 68.1 °F 29.89 in SE 0.8 mph 3.5 mph 96 % 0.00 in
22:10 69.2 °F 68.0 °F 29.90 in Calm     96 % 0.00 in
22:15 69.2 °F 68.0 °F 29.90 in Calm     96 % 0.00 in
22:20 69.1 °F 67.9 °F 29.90 in Calm     96 % 0.00 in
22:25 69.1 °F 68.2 °F 29.90 in Calm     97 % 0.00 in
22:30 69.1 °F 68.2 °F 29.90 in Calm   1.2 mph 97 % 0.00 in
22:35 69.0 °F 68.1 °F 29.90 in SE 0.4 mph 3.5 mph 97 % 0.00 in
22:40 69.0 °F 68.1 °F 29.90 in SE 0.4 mph 1.2 mph 97 % 0.00 in
22:45 69.0 °F 68.1 °F 29.90 in Calm   2.3 mph 97 % 0.00 in
22:50 69.0 °F 68.1 °F 29.90 in SE 0.5 mph 3.5 mph 97 % 0.00 in
22:55 68.9 °F 68.0 °F 29.90 in WSW 1.0 mph 2.3 mph 97 % 0.00 in
23:00 68.9 °F 68.0 °F 29.89 in SSE 0.1 mph 2.0 mph 97 % 0.00 in
23:05 68.9 °F 68.0 °F 29.90 in SSE 1.1 mph 3.5 mph 97 % 0.00 in
23:10 68.9 °F 68.0 °F 29.89 in Calm     97 % 0.00 in
23:15 68.9 °F 68.0 °F 29.89 in Calm   1.2 mph 97 % 0.00 in
23:21 68.9 °F 68.0 °F 29.89 in Calm   1.0 mph 97 % 0.00 in
23:26 68.9 °F 68.0 °F 29.89 in SSE 1.0 mph 4.0 mph 97 % 0.00 in
23:31 68.9 °F 68.0 °F 29.90 in Calm   4.0 mph 97 % 0.00 in
23:36 68.8 °F 68.0 °F 29.90 in Calm   5.0 mph 97 % 0.00 in
23:41 68.8 °F 67.9 °F 29.89 in Calm   2.0 mph 97 % 0.00 in
23:46 68.8 °F 67.9 °F 29.89 in Calm   1.2 mph 97 % 0.00 in
23:51 68.8 °F 67.9 °F 29.89 in SE 1.0 mph 4.0 mph 97 % 0.00 in
23:56 68.8 °F 67.9 °F 29.89 in Calm   1.0 mph 97 % 0.00 in
Crab Meadow Weather
Compliments of Weather Underground - 3 mb

Script developed by  Jim McMurry - jmcmurry@mwt.net Adapted for the template by  Wim van der Kuil - Leuven-Template.eu

Recycling: Americans throw away 25,000,000,000 Styrofoam coffee cups every year.